createdAt,value
2019-05-02T00:00:14.926Z,8.80
2019-05-02T00:02:47.979Z,8.80
2019-05-02T00:05:21.443Z,8.90
2019-05-02T00:07:53.886Z,8.90
2019-05-02T00:10:26.069Z,9.00
2019-05-02T00:12:57.911Z,9.10
2019-05-02T00:15:33.175Z,9.00
2019-05-02T00:18:02.851Z,9.00
2019-05-02T00:20:34.318Z,9.10
2019-05-02T00:23:05.862Z,9.10
2019-05-02T00:25:37.462Z,9.10
2019-05-02T00:28:12.351Z,9.10
2019-05-02T00:30:42.523Z,9.10
2019-05-02T00:33:14.231Z,9.20
2019-05-02T00:35:47.484Z,9.20
2019-05-02T00:38:19.500Z,9.20
2019-05-02T00:40:51.038Z,9.10
2019-05-02T00:43:22.563Z,9.10
2019-05-02T00:45:55.089Z,9.00
2019-05-02T00:48:35.947Z,9.00
2019-05-02T00:51:07.562Z,9.00
2019-05-02T00:53:39.245Z,9.00
2019-05-02T00:56:10.749Z,9.00
2019-05-02T00:58:42.349Z,9.00
2019-05-02T01:01:32.759Z,9.00
2019-05-02T01:04:10.898Z,8.90
2019-05-02T01:06:44.751Z,8.80
2019-05-02T01:09:15.998Z,8.80
2019-05-02T01:11:47.540Z,8.80
2019-05-02T01:14:20.062Z,8.70
2019-05-02T01:16:54.303Z,8.70
2019-05-02T01:19:24.986Z,8.80
2019-05-02T01:21:56.518Z,8.80
2019-05-02T01:24:28.101Z,8.80
2019-05-02T01:27:08.618Z,8.70
2019-05-02T01:30:01.677Z,8.70
2019-05-02T01:32:42.239Z,8.70
2019-05-02T01:35:27.034Z,8.80
2019-05-02T01:38:17.562Z,8.80
2019-05-02T01:40:53.116Z,8.80
2019-05-02T01:43:31.018Z,8.80
2019-05-02T01:46:02.752Z,8.80
2019-05-02T01:48:34.533Z,8.70
2019-05-02T01:51:10.434Z,8.80
2019-05-02T01:53:39.470Z,8.80
2019-05-02T01:56:10.996Z,8.80
2019-05-02T01:58:42.547Z,8.80
2019-05-02T02:01:16.343Z,8.80
2019-05-02T02:03:47.500Z,8.90
2019-05-02T02:06:20.103Z,8.90
2019-05-02T02:08:51.594Z,8.90
2019-05-02T02:11:23.240Z,8.90
2019-05-02T02:13:54.736Z,9.00
2019-05-02T02:16:27.327Z,9.00
2019-05-02T02:19:09.877Z,9.10
2019-05-02T02:21:51.064Z,9.20
2019-05-02T02:24:27.158Z,9.20
2019-05-02T02:26:58.692Z,9.20
2019-05-02T02:29:30.208Z,9.20
2019-05-02T02:32:02.846Z,9.20
2019-05-02T02:34:34.482Z,9.20
2019-05-02T02:37:12.478Z,9.20
2019-05-02T02:39:39.142Z,9.30
2019-05-02T02:42:10.800Z,9.40
2019-05-02T02:44:49.246Z,9.30
2019-05-02T02:47:21.205Z,9.40
2019-05-02T02:49:56.009Z,9.40
2019-05-02T02:52:26.242Z,9.40
2019-05-02T02:54:57.994Z,9.40
2019-05-02T02:57:29.607Z,9.40
2019-05-02T03:00:07.751Z,9.40
2019-05-02T03:02:34.497Z,9.50
2019-05-02T03:05:06.436Z,9.50
2019-05-02T03:07:38.060Z,9.60
2019-05-02T03:10:09.759Z,9.60
2019-05-02T03:13:00.257Z,9.50
2019-05-02T03:15:38.601Z,9.50
2019-05-02T03:18:39.898Z,9.60
2019-05-02T03:21:02.825Z,9.50
2019-05-02T03:23:34.580Z,9.50
2019-05-02T03:26:08.041Z,9.60
2019-05-02T03:28:39.592Z,9.60
2019-05-02T03:31:23.736Z,9.60
2019-05-02T03:33:55.165Z,9.60
2019-05-02T03:36:28.623Z,9.60
2019-05-02T03:38:51.135Z,9.50
2019-05-02T03:41:23.618Z,9.50
2019-05-02T03:44:09.949Z,9.50
2019-05-02T03:46:28.668Z,9.60
2019-05-02T03:49:07.522Z,9.60
2019-05-02T03:51:33.700Z,9.50
2019-05-02T03:54:07.714Z,9.60
2019-05-02T03:56:44.479Z,9.70
2019-05-02T03:59:11.928Z,9.60
2019-05-02T04:01:43.564Z,9.60
2019-05-02T04:04:26.802Z,9.50
2019-05-02T04:07:01.023Z,9.60
2019-05-02T04:09:40.021Z,9.60
2019-05-02T04:12:17.813Z,9.70
2019-05-02T04:14:45.120Z,9.70
2019-05-02T04:17:17.027Z,9.60
2019-05-02T04:19:49.879Z,9.70
2019-05-02T04:22:23.455Z,9.70
2019-05-02T04:24:56.859Z,9.70
2019-05-02T04:27:34.038Z,9.60
2019-05-02T04:30:10.876Z,9.60
2019-05-02T04:32:36.144Z,9.60
2019-05-02T04:35:07.695Z,9.60
2019-05-02T04:37:41.173Z,9.70
2019-05-02T04:40:13.977Z,9.70
2019-05-02T04:42:53.463Z,9.70
2019-05-02T04:45:26.506Z,9.70
2019-05-02T04:47:58.617Z,9.80
2019-05-02T04:50:29.424Z,9.70
2019-05-02T04:52:59.877Z,9.80
2019-05-02T04:55:33.344Z,9.80
2019-05-02T04:58:04.849Z,9.80
2019-05-02T05:00:38.948Z,9.80
2019-05-02T05:03:15.664Z,9.70
2019-05-02T05:05:43.010Z,9.80
2019-05-02T05:08:17.579Z,9.80
2019-05-02T05:10:48.365Z,9.70
2019-05-02T05:13:23.281Z,9.70
2019-05-02T05:15:53.456Z,9.80
2019-05-02T05:18:27.275Z,9.80
2019-05-02T05:20:58.283Z,9.80
2019-05-02T05:23:51.659Z,9.80
2019-05-02T05:26:24.938Z,9.80
2019-05-02T05:28:58.297Z,9.80
2019-05-02T05:31:29.817Z,9.90
2019-05-02T05:34:01.422Z,9.90
2019-05-02T05:36:34.125Z,9.90
2019-05-02T05:39:08.376Z,9.90
2019-05-02T05:41:52.340Z,9.90
2019-05-02T05:44:23.386Z,9.90
2019-05-02T05:46:55.618Z,9.80
2019-05-02T05:49:28.314Z,9.80
2019-05-02T05:52:03.812Z,9.90
2019-05-02T05:54:38.376Z,10.00
2019-05-02T05:57:12.223Z,9.90
2019-05-02T05:59:41.267Z,10.00
2019-05-02T06:02:14.719Z,10.00
2019-05-02T06:04:47.383Z,10.10
2019-05-02T06:07:20.063Z,10.10
2019-05-02T06:09:51.777Z,10.10
2019-05-02T06:12:26.110Z,10.10
2019-05-02T06:15:01.694Z,10.20
2019-05-02T06:17:31.191Z,10.20
2019-05-02T06:20:02.765Z,10.20
2019-05-02T06:22:34.405Z,10.20
2019-05-02T06:25:10.714Z,10.20
2019-05-02T06:27:42.391Z,10.20
2019-05-02T06:30:15.459Z,10.30
2019-05-02T06:32:50.112Z,10.30
2019-05-02T06:35:21.205Z,10.20
2019-05-02T06:37:53.095Z,10.30
2019-05-02T06:40:24.623Z,10.40
2019-05-02T06:42:57.051Z,10.30
2019-05-02T06:45:32.352Z,10.30
2019-05-02T06:48:01.976Z,10.20
2019-05-02T06:50:38.659Z,10.20
2019-05-02T06:53:09.813Z,10.30
2019-05-02T06:55:40.045Z,10.30
2019-05-02T06:58:12.942Z,10.40
2019-05-02T07:00:56.797Z,10.30
2019-05-02T07:03:18.120Z,10.40
2019-05-02T07:05:49.770Z,10.40
2019-05-02T07:08:22.815Z,10.40
2019-05-02T07:11:01.452Z,10.40
2019-05-02T07:13:29.544Z,10.40
2019-05-02T07:16:37.288Z,10.40
2019-05-02T07:18:56.236Z,10.40
2019-05-02T07:21:27.893Z,10.30
2019-05-02T07:23:59.569Z,10.40
2019-05-02T07:26:31.106Z,10.40
2019-05-02T07:29:02.902Z,10.40
2019-05-02T07:31:34.696Z,10.40
2019-05-02T07:34:07.955Z,10.40
2019-05-02T07:36:39.737Z,10.40
2019-05-02T07:39:11.886Z,10.40
2019-05-02T07:41:45.837Z,10.50
2019-05-02T07:44:17.629Z,10.40
2019-05-02T07:46:52.025Z,10.50
2019-05-02T07:49:26.606Z,10.50
2019-05-02T07:51:59.857Z,10.40
2019-05-02T07:54:31.572Z,10.40
2019-05-02T07:57:03.283Z,10.30
2019-05-02T07:59:36.569Z,10.40
2019-05-02T08:02:08.463Z,10.40
2019-05-02T08:04:43.604Z,10.40
2019-05-02T08:07:16.304Z,10.40
2019-05-02T08:09:46.817Z,10.40
2019-05-02T08:12:18.664Z,10.40
2019-05-02T08:14:50.303Z,10.40
2019-05-02T08:17:22.068Z,10.40
2019-05-02T08:19:53.738Z,10.40
2019-05-02T08:22:26.743Z,10.20
2019-05-02T08:25:01.076Z,10.20
2019-05-02T08:27:57.472Z,10.20
2019-05-02T08:30:35.410Z,10.10
2019-05-02T08:33:06.865Z,10.10
2019-05-02T08:35:38.435Z,10.10
2019-05-02T08:38:12.556Z,10.10
2019-05-02T08:40:47.902Z,10.20
2019-05-02T08:43:17.122Z,10.20
2019-05-02T08:45:48.879Z,10.20
2019-05-02T08:48:22.717Z,10.30
2019-05-02T08:50:53.910Z,10.20
2019-05-02T08:53:25.850Z,10.20
2019-05-02T08:55:57.545Z,10.20
2019-05-02T08:58:29.254Z,10.10
2019-05-02T09:01:01.063Z,10.10
2019-05-02T09:03:38.872Z,10.10
2019-05-02T09:06:06.589Z,10.10
2019-05-02T09:08:38.271Z,10.10
2019-05-02T09:11:14.309Z,10.10
2019-05-02T09:13:45.989Z,10.10
2019-05-02T09:16:23.624Z,10.20
2019-05-02T09:18:54.168Z,10.10
2019-05-02T09:21:26.732Z,10.10
2019-05-02T09:23:59.772Z,10.10
2019-05-02T09:26:35.991Z,10.20
2019-05-02T09:29:05.483Z,10.20
2019-05-02T09:31:42.154Z,10.20
2019-05-02T09:34:11.767Z,10.20
2019-05-02T09:36:43.424Z,10.20
2019-05-02T09:39:15.010Z,10.30
2019-05-02T09:41:46.786Z,10.20
2019-05-02T09:44:19.694Z,10.20
2019-05-02T09:46:55.164Z,10.10
2019-05-02T09:49:24.567Z,10.10
2019-05-02T09:51:59.515Z,10.20
2019-05-02T09:54:29.586Z,10.20
2019-05-02T09:57:02.848Z,10.00
2019-05-02T09:59:34.550Z,10.10
2019-05-02T10:02:08.501Z,10.20
2019-05-02T10:04:43.484Z,10.20
2019-05-02T10:07:15.324Z,10.20
2019-05-02T10:09:46.573Z,10.10
2019-05-02T10:12:18.152Z,10.10
2019-05-02T10:14:49.682Z,10.20
2019-05-02T10:17:23.147Z,10.20
2019-05-02T10:19:57.159Z,10.20
2019-05-02T10:22:33.742Z,10.20
2019-05-02T10:25:02.617Z,10.20
2019-05-02T10:27:38.534Z,10.20
2019-05-02T10:30:15.284Z,10.30
2019-05-02T10:32:42.892Z,10.30
2019-05-02T10:35:17.772Z,10.40
2019-05-02T10:37:49.326Z,10.40
2019-05-02T10:40:22.499Z,10.50
2019-05-02T10:42:55.383Z,10.50
2019-05-02T10:45:26.893Z,10.60
2019-05-02T10:47:58.580Z,10.70
2019-05-02T10:50:34.544Z,10.80
2019-05-02T10:53:11.869Z,10.80
2019-05-02T10:55:39.998Z,10.80
2019-05-02T10:58:12.414Z,10.80
2019-05-02T11:00:45.453Z,10.80
2019-05-02T11:03:38.115Z,10.90
2019-05-02T11:06:08.201Z,10.90
2019-05-02T11:08:42.245Z,10.90
2019-05-02T11:11:13.217Z,10.90
2019-05-02T11:14:00.592Z,10.90
2019-05-02T11:16:38.890Z,11.00
2019-05-02T11:19:38.408Z,11.10
2019-05-02T11:22:12.006Z,11.10
2019-05-02T11:24:43.304Z,11.20
2019-05-02T11:27:15.025Z,11.30
2019-05-02T11:29:46.672Z,11.20
2019-05-02T11:32:18.481Z,11.20
2019-05-02T11:34:49.999Z,11.30
2019-05-02T11:37:22.606Z,11.40
2019-05-02T11:40:00.367Z,11.40
2019-05-02T11:42:27.813Z,11.50
2019-05-02T11:44:59.458Z,11.70
2019-05-02T11:47:32.889Z,11.90
2019-05-02T11:50:06.200Z,11.90
2019-05-02T11:52:37.822Z,12.00
2019-05-02T11:55:09.814Z,12.00
2019-05-02T11:57:42.577Z,12.00
2019-05-02T12:00:14.921Z,11.90
2019-05-02T12:03:05.454Z,11.80
2019-05-02T12:05:42.883Z,11.90
2019-05-02T12:08:14.478Z,12.10
2019-05-02T12:10:46.022Z,12.30
2019-05-02T12:13:17.651Z,12.50
2019-05-02T12:15:49.399Z,12.60
2019-05-02T12:18:23.179Z,12.60
2019-05-02T12:20:54.332Z,12.50
2019-05-02T12:23:25.979Z,12.60
2019-05-02T12:25:57.577Z,12.60
2019-05-02T12:28:29.428Z,12.70
2019-05-02T12:31:02.713Z,12.80
2019-05-02T12:33:38.587Z,12.70
2019-05-02T12:36:12.082Z,12.70
2019-05-02T12:38:43.717Z,12.80
2019-05-02T12:41:22.256Z,12.80
2019-05-02T12:43:48.523Z,12.80
2019-05-02T12:46:22.215Z,12.70
2019-05-02T12:48:53.621Z,12.80
2019-05-02T12:51:25.359Z,12.70
2019-05-02T12:53:57.053Z,12.60
2019-05-02T12:56:28.665Z,12.60
2019-05-02T12:59:02.166Z,12.60
2019-05-02T13:01:33.698Z,12.70
2019-05-02T13:04:07.841Z,12.90
2019-05-02T13:06:39.386Z,12.90
2019-05-02T13:09:13.043Z,13.00
2019-05-02T13:12:03.008Z,13.00
2019-05-02T13:14:34.853Z,13.10
2019-05-02T13:17:07.180Z,13.20
2019-05-02T13:19:41.408Z,13.10
2019-05-02T13:22:49.529Z,13.00
2019-05-02T13:25:27.393Z,13.10
2019-05-02T13:27:56.796Z,13.00
2019-05-02T13:30:42.695Z,13.00
2019-05-02T13:33:14.329Z,12.90
2019-05-02T13:35:49.303Z,12.90
2019-05-02T13:38:22.925Z,12.90
2019-05-02T13:40:54.773Z,12.90
2019-05-02T13:43:30.111Z,12.90
2019-05-02T13:46:18.577Z,12.80
2019-05-02T13:48:50.130Z,12.90
2019-05-02T13:51:22.276Z,12.90
2019-05-02T13:54:02.018Z,12.90
2019-05-02T13:56:52.840Z,13.00
2019-05-02T13:59:24.637Z,13.30
2019-05-02T14:01:57.435Z,13.40
2019-05-02T14:04:29.031Z,13.60
2019-05-02T14:07:02.796Z,13.70
2019-05-02T14:09:52.661Z,13.50
2019-05-02T14:12:44.383Z,13.50
2019-05-02T14:15:23.238Z,13.50
2019-05-02T14:17:55.064Z,13.60
2019-05-02T14:20:26.949Z,13.50
2019-05-02T14:22:58.468Z,13.50
2019-05-02T14:25:31.937Z,13.60
2019-05-02T14:28:03.419Z,13.60
2019-05-02T14:30:39.536Z,13.70
2019-05-02T14:33:14.323Z,13.50
2019-05-02T14:35:45.964Z,13.50
2019-05-02T14:38:17.708Z,13.50
2019-05-02T14:41:14.674Z,13.60
2019-05-02T14:43:52.579Z,13.70
2019-05-02T14:46:35.456Z,13.60
2019-05-02T14:49:02.547Z,13.50
2019-05-02T14:51:36.647Z,13.50
2019-05-02T14:54:08.697Z,13.50
2019-05-02T14:56:59.215Z,13.60
2019-05-02T14:59:32.259Z,13.80
2019-05-02T15:02:07.880Z,13.90
2019-05-02T15:04:44.442Z,13.70
2019-05-02T15:07:13.075Z,13.70
2019-05-02T15:09:44.727Z,13.60
2019-05-02T15:12:19.065Z,13.60
2019-05-02T15:14:57.025Z,13.70
2019-05-02T15:17:23.235Z,13.80
2019-05-02T15:19:54.885Z,13.90
2019-05-02T15:22:27.651Z,13.90
2019-05-02T15:25:00.084Z,13.90
2019-05-02T15:27:40.128Z,13.90
2019-05-02T15:30:07.366Z,13.80
2019-05-02T15:32:48.040Z,13.80
2019-05-02T15:35:44.628Z,13.70
2019-05-02T15:38:24.312Z,13.70
2019-05-02T15:40:52.847Z,13.60
2019-05-02T15:43:23.113Z,13.50
2019-05-02T15:45:54.680Z,13.60
2019-05-02T15:48:27.692Z,13.50
2019-05-02T15:51:00.185Z,13.50
2019-05-02T15:54:03.086Z,13.50
2019-05-02T15:56:25.230Z,13.40
2019-05-02T15:58:57.947Z,13.20
2019-05-02T16:01:47.970Z,13.20
2019-05-02T16:04:25.569Z,13.10
2019-05-02T16:07:00.499Z,12.80
2019-05-02T16:09:30.033Z,12.40
2019-05-02T16:12:03.062Z,11.70
2019-05-02T16:14:36.078Z,11.20
2019-05-02T16:17:09.038Z,10.80
2019-05-02T16:19:45.647Z,10.60
2019-05-02T16:22:22.595Z,10.50
2019-05-02T16:24:56.629Z,10.50
2019-05-02T16:27:44.444Z,10.40
2019-05-02T16:30:22.351Z,10.40
2019-05-02T16:32:57.020Z,10.30
2019-05-02T16:35:31.306Z,10.10
2019-05-02T16:38:03.039Z,10.00
2019-05-02T16:40:35.009Z,10.00
2019-05-02T16:43:06.647Z,9.90
2019-05-02T16:45:38.317Z,9.80
2019-05-02T16:48:11.855Z,9.80
2019-05-02T16:50:44.997Z,9.70
2019-05-02T16:53:17.125Z,9.50
2019-05-02T16:55:50.420Z,9.40
2019-05-02T16:58:22.065Z,9.30
2019-05-02T17:00:53.921Z,9.20
2019-05-02T17:03:26.619Z,9.10
2019-05-02T17:05:58.358Z,9.00
2019-05-02T17:08:57.358Z,9.10
2019-05-02T17:11:35.849Z,9.10
2019-05-02T17:14:07.188Z,9.10
2019-05-02T17:16:39.590Z,9.00
2019-05-02T17:19:12.298Z,9.10
2019-05-02T17:21:53.147Z,9.20
2019-05-02T17:24:17.296Z,9.10
2019-05-02T17:26:51.895Z,9.20
2019-05-02T17:29:23.623Z,9.20
2019-05-02T17:31:59.129Z,9.20
2019-05-02T17:34:30.804Z,9.30
2019-05-02T17:37:04.855Z,9.30
2019-05-02T17:39:37.240Z,9.40
2019-05-02T17:42:09.080Z,9.40
2019-05-02T17:44:41.573Z,9.40
2019-05-02T17:47:14.367Z,9.40
2019-05-02T17:49:46.338Z,9.40
2019-05-02T17:52:32.373Z,9.30
2019-05-02T17:55:04.378Z,9.30
2019-05-02T17:57:35.977Z,9.20
2019-05-02T18:00:16.786Z,9.20
2019-05-02T18:02:51.651Z,9.30
2019-05-02T18:05:21.711Z,9.40
2019-05-02T18:07:53.311Z,9.40
2019-05-02T18:10:25.939Z,9.40
2019-05-02T18:12:59.864Z,9.40
2019-05-02T18:15:34.756Z,9.40
2019-05-02T18:18:06.759Z,9.50
2019-05-02T18:20:42.867Z,9.50
2019-05-02T18:23:12.212Z,9.50
2019-05-02T18:25:43.918Z,9.50
2019-05-02T18:28:22.233Z,9.50
2019-05-02T18:30:50.107Z,9.50
2019-05-02T18:33:22.666Z,9.40
2019-05-02T18:35:55.375Z,9.30
2019-05-02T18:38:27.054Z,9.30
2019-05-02T18:41:00.406Z,9.20
2019-05-02T18:43:36.076Z,9.20
2019-05-02T18:46:07.527Z,9.20
2019-05-02T18:48:44.233Z,9.30
2019-05-02T18:51:17.182Z,9.20
2019-05-02T18:53:46.272Z,9.20
2019-05-02T18:56:17.932Z,9.30
2019-05-02T18:58:50.005Z,9.30
2019-05-02T19:01:21.733Z,9.30
2019-05-02T19:03:56.177Z,9.30
2019-05-02T19:06:28.013Z,9.30
2019-05-02T19:09:05.209Z,9.20
2019-05-02T19:11:38.749Z,9.20
2019-05-02T19:14:11.632Z,9.10
2019-05-02T19:16:44.415Z,9.10
2019-05-02T19:19:16.209Z,9.20
2019-05-02T19:21:49.209Z,9.10
2019-05-02T19:24:22.766Z,9.10
2019-05-02T19:26:56.399Z,9.10
2019-05-02T19:29:31.649Z,9.10
2019-05-02T19:32:04.911Z,9.10
2019-05-02T19:34:37.100Z,9.10
2019-05-02T19:37:09.011Z,9.10
2019-05-02T19:39:44.785Z,9.10
2019-05-02T19:42:17.126Z,9.20
2019-05-02T19:44:49.343Z,9.10
2019-05-02T19:47:21.983Z,9.10
2019-05-02T19:49:54.453Z,9.10
2019-05-02T19:52:28.625Z,9.10
2019-05-02T19:54:59.883Z,9.10
2019-05-02T19:57:32.387Z,9.10
2019-05-02T20:00:06.474Z,9.10
2019-05-02T20:02:42.264Z,9.10
2019-05-02T20:05:11.898Z,9.10
2019-05-02T20:07:43.677Z,9.10
2019-05-02T20:10:17.859Z,9.00
2019-05-02T20:12:50.923Z,9.00
2019-05-02T20:15:26.905Z,9.00
2019-05-02T20:18:00.641Z,8.90
2019-05-02T20:20:52.490Z,9.00
2019-05-02T20:23:31.555Z,8.90
2019-05-02T20:25:57.587Z,8.80
2019-05-02T20:28:31.634Z,8.80
2019-05-02T20:31:03.026Z,8.70
2019-05-02T20:33:42.858Z,8.80
2019-05-02T20:36:15.599Z,8.80
2019-05-02T20:38:47.388Z,8.80
2019-05-02T20:41:19.145Z,8.70
2019-05-02T20:43:51.697Z,8.70
2019-05-02T20:46:25.185Z,8.60
2019-05-02T20:48:58.010Z,8.50
2019-05-02T20:51:32.670Z,8.40
2019-05-02T20:54:04.357Z,8.30
2019-05-02T20:56:36.084Z,8.20
2019-05-02T20:59:08.945Z,8.20
2019-05-02T21:02:01.718Z,8.10
2019-05-02T21:04:36.884Z,8.10
2019-05-02T21:07:25.610Z,8.10
2019-05-02T21:10:19.067Z,8.00
2019-05-02T21:12:52.689Z,8.00
2019-05-02T21:15:24.158Z,7.90
2019-05-02T21:21:05.473Z,7.80
2019-05-02T21:23:44.776Z,7.80
2019-05-02T21:26:22.054Z,7.70
2019-05-02T21:28:53.802Z,7.70
2019-05-02T21:31:25.671Z,7.60
2019-05-02T21:34:03.174Z,7.60
2019-05-02T21:36:34.946Z,7.60
2019-05-02T21:39:12.321Z,7.60
2019-05-02T21:41:47.131Z,7.70
2019-05-02T21:44:18.972Z,7.50
2019-05-02T21:46:54.943Z,7.50
2019-05-02T21:50:03.343Z,7.40
2019-05-02T21:53:17.909Z,7.50
2019-05-02T21:55:59.986Z,7.40
2019-05-02T21:58:33.513Z,7.30
2019-05-02T22:01:10.447Z,7.30
2019-05-02T22:03:43.636Z,7.30
2019-05-02T22:06:15.500Z,7.30
2019-05-02T22:08:47.481Z,7.20
2019-05-02T22:11:22.601Z,7.20
2019-05-02T22:13:54.799Z,7.20
2019-05-02T22:16:26.621Z,7.20
2019-05-02T22:18:58.324Z,7.20
2019-05-02T22:21:32.415Z,7.20
2019-05-02T22:24:11.039Z,7.20
2019-05-02T22:26:37.739Z,7.20
2019-05-02T22:29:09.340Z,7.20
2019-05-02T22:31:42.951Z,7.20
2019-05-02T22:34:14.689Z,7.20
2019-05-02T22:36:46.375Z,7.10
2019-05-02T22:39:42.090Z,7.10
2019-05-02T22:42:13.949Z,7.10
2019-05-02T22:44:45.613Z,7.10
2019-05-02T22:47:17.428Z,7.10
2019-05-02T22:49:49.144Z,7.10
2019-05-02T22:52:21.768Z,7.10
2019-05-02T22:54:53.724Z,7.10
2019-05-02T22:57:25.674Z,7.20
2019-05-02T22:59:57.331Z,7.10
2019-05-02T23:02:30.033Z,7.10
2019-05-02T23:05:02.130Z,7.10
2019-05-02T23:07:34.497Z,7.00
2019-05-02T23:10:07.606Z,7.00
2019-05-02T23:12:39.189Z,7.00
2019-05-02T23:15:12.563Z,6.90
2019-05-02T23:17:56.856Z,6.90
2019-05-02T23:20:32.945Z,6.90
2019-05-02T23:23:04.639Z,6.90
2019-05-02T23:34:46.851Z,6.90
2019-05-02T23:37:19.787Z,6.80
2019-05-02T23:39:53.927Z,6.90
2019-05-02T23:42:25.572Z,6.90
2019-05-02T23:44:57.639Z,6.90
2019-05-02T23:47:29.475Z,6.90
2019-05-02T23:50:02.813Z,6.90
2019-05-02T23:52:34.964Z,6.90
2019-05-02T23:55:06.830Z,6.90
2019-05-02T23:57:39.059Z,6.90
